Time;durP1;ratioP1;P1;durP2;ratioP2;P2;SDS_P1;SDS_P2;PMS_P1;PMS_P2;Temp;Humidity;BMP_temperature;BMP_pressure;BME280_temperature;BME280_humidity;BME280_pressure;Samples;Min_cycle;Max_cycle;Signal;HPM_P1;HPM_P2
2023/10/22 00:01:26;;;;;;;;;;;;;;;22.42;59.52;101292.72;4956525;28;20024;-86
2023/10/22 00:03:54;;;;;;;;;;;;;;;22.42;59.63;101295.38;4954626;28;20553;-86
2023/10/22 00:06:47;;;;;;;;;;;;;;;22.14;59.44;101255.06;4955783;28;19918;-85
2023/10/22 00:09:15;;;;;;;;;;;;;;;22.41;59.50;101294.47;4973119;28;19926;-86
2023/10/22 00:11:41;;;;;;;;;;;;;;;22.42;59.45;101293.63;4942615;28;19914;-85
2023/10/22 00:14:06;;;;;;;;;;;;;;;22.40;59.53;101283.84;4939924;28;19925;-87
2023/10/22 00:16:32;;;;;;;;;;;;;;;22.42;59.47;101295.38;4956989;28;20087;-86
2023/10/22 00:18:59;;;;;;;;;;;;;;;22.41;59.45;101291.81;4940139;28;19973;-86
2023/10/22 00:21:34;;;;;;;;;;;;;;;22.39;59.37;101292.66;4972210;28;19922;-86
2023/10/22 00:24:15;;;;;;;;;;;;;;;22.38;59.54;101297.09;4961150;28;19925;-85
2023/10/22 00:26:41;;;;;;;;;;;;;;;22.38;59.50;101293.56;4955187;28;20285;-85
2023/10/22 00:29:12;;;;;;;;;;;;;;;22.36;59.55;101294.41;4973198;28;19976;-86
2023/10/22 00:31:39;;;;;;;;;;;;;;;22.39;59.46;101296.22;4942328;28;19925;-86
2023/10/22 00:34:06;;;;;;;;;;;;;;;22.36;59.59;101291.75;4968803;28;19918;-86
2023/10/22 00:36:31;;;;;;;;;;;;;;;22.34;59.63;101301.47;4956806;28;19925;-85
2023/10/22 00:38:58;;;;;;;;;;;;;;;22.35;59.63;101297.97;4943819;28;19946;-86
2023/10/22 00:41:25;;;;;;;;;;;;;;;22.35;59.69;101300.63;4929652;28;19914;-85
2023/10/22 00:43:52;;;;;;;;;;;;;;;22.35;59.52;101297.03;4941302;28;19918;-86
2023/10/22 00:46:22;;;;;;;;;;;;;;;22.38;59.53;101314.84;4941767;28;20380;-85
2023/10/22 00:48:47;;;;;;;;;;;;;;;22.40;59.42;101305.13;4941015;28;19914;-86
2023/10/22 00:51:13;;;;;;;;;;;;;;;22.36;59.49;101307.72;4944674;28;19918;-84
2023/10/22 00:53:44;;;;;;;;;;;;;;;22.36;59.55;101312.16;4938414;29;19915;-85
2023/10/22 00:56:10;;;;;;;;;;;;;;;22.35;59.44;101310.34;4950417;28;19914;-85
2023/10/22 00:58:36;;;;;;;;;;;;;;;22.38;59.31;101310.41;4940874;28;19949;-85
2023/10/22 01:01:05;;;;;;;;;;;;;;;22.34;59.48;101314.78;4955675;28;20224;-85
2023/10/22 01:03:31;;;;;;;;;;;;;;;22.34;59.43;101320.09;4926434;29;19920;-85
2023/10/22 01:05:56;;;;;;;;;;;;;;;22.35;59.50;101319.25;4955871;28;20722;-85
2023/10/22 01:08:22;;;;;;;;;;;;;;;22.36;59.64;101317.47;4940760;28;19925;-85
2023/10/22 01:10:47;;;;;;;;;;;;;;;22.36;59.49;101321.03;4955981;28;19924;-84
2023/10/22 01:13:14;;;;;;;;;;;;;;;22.34;59.48;101328.09;4973185;28;20315;-85
2023/10/22 01:15:39;;;;;;;;;;;;;;;22.33;59.49;101328.97;4973249;28;19946;-85
2023/10/22 01:18:05;;;;;;;;;;;;;;;22.32;59.52;101326.28;4937040;29;19973;-87
2023/10/22 01:20:31;;;;;;;;;;;;;;;22.33;59.45;101336.03;4936190;29;19922;-85
2023/10/22 01:22:56;;;;;;;;;;;;;;;22.36;59.39;101333.44;4952473;28;19963;-84
2023/10/22 01:25:22;;;;;;;;;;;;;;;22.35;59.44;101337.88;4936377;29;19922;-84
2023/10/22 01:27:47;;;;;;;;;;;;;;;22.34;59.46;101336.06;4944143;29;19918;-85
2023/10/22 01:30:13;;;;;;;;;;;;;;;22.37;59.39;101337.88;4927919;29;20009;-85
2023/10/22 01:32:38;;;;;;;;;;;;;;;22.36;59.45;101331.66;4943963;29;19921;-86
2023/10/22 01:35:04;;;;;;;;;;;;;;;22.37;59.43;101335.22;4951463;29;20463;-85
2023/10/22 01:37:29;;;;;;;;;;;;;;;22.37;59.33;101335.22;4951991;28;19966;-85
2023/10/22 01:39:57;;;;;;;;;;;;;;;22.35;59.40;101332.56;4926356;29;19923;-86
2023/10/22 01:42:23;;;;;;;;;;;;;;;22.36;59.23;101328.13;4949880;29;20367;-85
2023/10/22 01:44:48;;;;;;;;;;;;;;;22.35;59.54;101335.22;4936767;28;20386;-85
2023/10/22 01:47:17;;;;;;;;;;;;;;;22.36;59.41;101330.78;4946184;29;19915;-85
2023/10/22 01:49:46;;;;;;;;;;;;;;;22.35;59.46;101334.31;4936072;28;19942;-86
2023/10/22 01:52:18;;;;;;;;;;;;;;;22.35;59.44;101335.22;4952950;29;20371;-86
2023/10/22 01:54:43;;;;;;;;;;;;;;;22.35;59.43;101326.31;4951893;29;20524;-85
2023/10/22 01:57:08;;;;;;;;;;;;;;;22.36;59.44;101326.34;4952486;29;19915;-87
2023/10/22 01:59:34;;;;;;;;;;;;;;;22.35;59.47;101319.25;4951109;29;19931;-87
2023/10/22 02:01:59;;;;;;;;;;;;;;;22.35;59.38;101319.25;4951321;29;20067;-86
2023/10/22 02:04:25;;;;;;;;;;;;;;;22.32;59.57;101315.66;4952542;28;19919;-85
2023/10/22 02:06:50;;;;;;;;;;;;;;;22.34;59.36;101316.56;4936711;29;19918;-87
2023/10/22 02:09:16;;;;;;;;;;;;;;;22.33;59.47;101309.44;4949579;28;20041;-85
2023/10/22 02:11:42;;;;;;;;;;;;;;;22.30;59.75;101322.72;4933815;28;19915;-85
2023/10/22 02:14:07;;;;;;;;;;;;;;;22.32;59.55;101318.31;4936319;29;19957;-84
2023/10/22 02:16:37;;;;;;;;;;;;;;;22.33;59.50;101312.09;4953088;28;20001;-85
2023/10/22 02:19:07;;;;;;;;;;;;;;;22.33;59.47;101322.75;4950288;29;19926;-85
2023/10/22 02:21:36;;;;;;;;;;;;;;;22.31;59.47;101330.72;4951767;28;19930;-85
2023/10/22 02:24:03;;;;;;;;;;;;;;;22.32;59.45;101326.28;4952893;29;19922;-85
2023/10/22 02:26:28;;;;;;;;;;;;;;;22.31;59.51;101325.41;4949023;29;19918;-86
2023/10/22 02:28:53;;;;;;;;;;;;;;;22.30;59.60;101336.00;4951997;29;19918;-84
2023/10/22 02:31:31;;;;;;;;;;;;;;;22.27;59.57;101338.66;4948987;29;19988;-85
2023/10/22 02:34:01;;;;;;;;;;;;;;;22.28;59.56;101330.66;4946041;29;19949;-84
2023/10/22 02:36:27;;;;;;;;;;;;;;;22.31;59.42;101338.72;4951593;28;19914;-84
2023/10/22 02:38:54;;;;;;;;;;;;;;;22.29;59.47;101335.13;4935398;29;19933;-85
2023/10/22 02:41:19;;;;;;;;;;;;;;;22.26;59.51;101339.50;4929570;29;19969;-85
2023/10/22 02:43:45;;;;;;;;;;;;;;;22.24;59.64;101341.25;4933243;29;19915;-85
2023/10/22 02:46:12;;;;;;;;;;;;;;;22.21;59.69;101342.06;4936571;29;19964;-85
2023/10/22 02:48:37;;;;;;;;;;;;;;;22.22;59.61;101334.97;4928707;29;20055;-83
2023/10/22 02:51:04;;;;;;;;;;;;;;;22.24;59.53;101344.78;4951617;28;20376;-85
2023/10/22 02:53:29;;;;;;;;;;;;;;;22.26;59.44;101339.50;4936336;29;20005;-85
2023/10/22 02:56:01;;;;;;;;;;;;;;;22.29;59.49;101347.53;4953420;29;20018;-85
2023/10/22 02:58:51;;;;;;;;;;;;;;;22.28;59.44;101340.41;4939277;28;20380;-85
2023/10/22 03:01:17;;;;;;;;;;;;;;;22.27;59.56;101349.28;4952258;29;19915;-85
2023/10/22 03:03:43;;;;;;;;;;;;;;;22.26;59.51;101345.69;4953135;28;20025;-86
2023/10/22 03:06:12;;;;;;;;;;;;;;;22.25;59.59;101351.03;4939262;28;19914;-86
2023/10/22 03:08:38;;;;;;;;;;;;;;;22.22;59.61;101346.50;4951399;29;19921;-86
2023/10/22 03:11:05;;;;;;;;;;;;;;;22.25;59.54;101353.69;4936097;29;19922;-86
2023/10/22 03:13:32;;;;;;;;;;;;;;;22.22;59.56;101350.94;4934335;29;19918;-86
2023/10/22 03:16:11;;;;;;;;;;;;;;;22.16;59.72;101347.31;4951590;29;19973;-86
2023/10/22 03:18:44;;;;;;;;;;;;;;;22.20;59.56;101345.56;4935935;29;20376;-87
2023/10/22 03:21:18;;;;;;;;;;;;;;;22.17;59.69;101359.72;4945611;28;19950;-87
2023/10/22 03:23:48;;;;;;;;;;;;;;;22.18;59.59;101349.97;4949682;28;19953;-86
2023/10/22 03:26:18;;;;;;;;;;;;;;;22.17;59.55;101349.09;4934162;29;19918;-86
2023/10/22 03:28:44;;;;;;;;;;;;;;;22.18;59.53;101344.66;4947865;28;19923;-86
2023/10/22 03:31:09;;;;;;;;;;;;;;;22.19;59.55;101351.78;4942206;29;20324;-86
2023/10/22 03:33:35;;;;;;;;;;;;;;;22.22;59.56;101350.94;4941744;28;19958;-86
2023/10/22 03:36:00;;;;;;;;;;;;;;;22.20;59.55;101361.53;4949391;29;19933;-86
2023/10/22 03:38:26;;;;;;;;;;;;;;;22.24;59.46;101365.19;4934224;29;19930;-86
2023/10/22 03:40:58;;;;;;;;;;;;;;;22.24;59.53;101373.16;4934631;29;19925;-86
2023/10/22 03:43:25;;;;;;;;;;;;;;;22.22;59.53;101370.44;4951211;29;19988;-87
2023/10/22 03:45:50;;;;;;;;;;;;;;;22.21;59.44;101381.06;4951547;28;19921;-87
2023/10/22 03:48:16;;;;;;;;;;;;;;;22.21;59.56;101381.06;4953871;29;20013;-87
2023/10/22 03:50:43;;;;;;;;;;;;;;;22.19;59.73;101375.72;4953732;29;19918;-86
2023/10/22 03:53:08;;;;;;;;;;;;;;;22.21;59.49;101375.75;4938779;29;20033;-86
2023/10/22 03:55:34;;;;;;;;;;;;;;;22.20;59.56;101371.28;4945180;28;20013;-86
2023/10/22 03:57:59;;;;;;;;;;;;;;;22.23;59.46;101376.72;4948772;28;20026;-86
2023/10/22 04:00:24;;;;;;;;;;;;;;;22.21;59.45;101386.41;4952999;28;19992;-86
2023/10/22 04:02:50;;;;;;;;;;;;;;;22.19;59.44;101382.81;4952675;29;19919;-85
2023/10/22 04:05:15;;;;;;;;;;;;;;;22.19;59.59;101380.16;4954372;28;19918;-82
2023/10/22 04:07:41;;;;;;;;;;;;;;;22.21;59.48;101389.06;4951697;29;19918;-83
2023/10/22 04:10:09;;;;;;;;;;;;;;;22.20;59.45;101381.94;4945378;29;19918;-84
2023/10/22 04:12:35;;;;;;;;;;;;;;;22.19;59.44;101390.81;4953304;28;19919;-83
2023/10/22 04:15:08;;;;;;;;;;;;;;;22.20;59.46;101390.81;4953580;28;19925;-85
2023/10/22 04:17:34;;;;;;;;;;;;;;;22.20;59.45;101388.13;4950471;28;19922;-85
2023/10/22 04:19:59;;;;;;;;;;;;;;;22.19;59.43;101386.38;4947251;29;19929;-85
2023/10/22 04:22:26;;;;;;;;;;;;;;;22.19;59.27;101386.38;4949236;28;19990;-85
2023/10/22 04:24:51;;;;;;;;;;;;;;;22.17;59.36;101382.78;4949118;28;19922;-86
2023/10/22 04:27:17;;;;;;;;;;;;;;;22.15;59.43;101385.41;4951120;28;19981;-86
2023/10/22 04:29:44;;;;;;;;;;;;;;;22.16;59.44;101389.88;4935310;29;19930;-85
2023/10/22 04:32:10;;;;;;;;;;;;;;;22.12;59.40;101390.69;4953470;28;19925;-86
2023/10/22 04:34:36;;;;;;;;;;;;;;;22.10;59.45;101386.22;4952101;29;19953;-85
2023/10/22 04:37:04;;;;;;;;;;;;;;;22.12;59.55;101387.16;4942310;28;19954;-86
2023/10/22 04:39:30;;;;;;;;;;;;;;;22.12;59.47;101396.00;4943003;29;19934;-86
2023/10/22 04:41:55;;;;;;;;;;;;;;;22.12;59.52;101396.00;4943229;29;20431;-86
2023/10/22 04:44:21;;;;;;;;;;;;;;;22.13;59.53;101397.78;4950574;29;20021;-86
2023/10/22 04:46:47;;;;;;;;;;;;;;;22.12;59.44;101393.34;4949391;28;19972;-86
2023/10/22 04:49:14;;;;;;;;;;;;;;;22.13;59.38;101395.13;4943449;28;19973;-86
2023/10/22 04:51:39;;;;;;;;;;;;;;;22.12;59.41;101401.34;4950348;29;19919;-87
2023/10/22 04:54:05;;;;;;;;;;;;;;;22.14;59.45;101406.69;4952364;28;20395;-87
2023/10/22 04:56:31;;;;;;;;;;;;;;;22.13;59.47;101411.09;4936397;29;20013;-87
2023/10/22 04:58:57;;;;;;;;;;;;;;;22.13;59.44;101410.22;4952616;28;19969;-86
2023/10/22 05:01:22;;;;;;;;;;;;;;;22.13;59.47;101418.19;4952383;28;20340;-85
2023/10/22 05:03:48;;;;;;;;;;;;;;;22.11;59.43;101411.94;4933025;28;19923;-86
2023/10/22 05:06:13;;;;;;;;;;;;;;;22.11;59.40;101410.16;4949046;29;19927;-86
2023/10/22 05:08:39;;;;;;;;;;;;;;;22.10;59.46;101410.16;4950579;29;19918;-86
2023/10/22 05:11:05;;;;;;;;;;;;;;;22.11;59.43;101420.81;4936196;29;19926;-86
2023/10/22 05:13:34;;;;;;;;;;;;;;;22.10;59.35;101420.81;4945636;28;19918;-83
2023/10/22 05:15:59;;;;;;;;;;;;;;;22.09;59.35;101419.88;4944620;28;19923;-83
2023/10/22 05:18:27;;;;;;;;;;;;;;;22.07;59.50;101428.72;4949104;29;19922;-84
2023/10/22 05:20:53;;;;;;;;;;;;;;;22.06;59.41;101432.25;4953379;28;19926;-82
2023/10/22 05:23:18;;;;;;;;;;;;;;;22.06;59.47;101427.84;4965907;28;19934;-84
2023/10/22 05:25:43;;;;;;;;;;;;;;;22.08;59.48;101428.75;4970354;28;19926;-84
2023/10/22 05:28:09;;;;;;;;;;;;;;;22.06;59.52;101440.25;4954186;28;19918;-84
2023/10/22 05:30:34;;;;;;;;;;;;;;;22.05;59.54;101446.41;4969945;28;19918;-82
2023/10/22 05:33:01;;;;;;;;;;;;;;;22.08;59.53;101439.41;4962368;28;19925;-82
2023/10/22 05:35:27;;;;;;;;;;;;;;;22.05;59.53;101452.63;4965063;28;20549;-82
2023/10/22 05:37:52;;;;;;;;;;;;;;;22.03;59.47;101450.81;4950597;28;20680;-82
2023/10/22 05:40:18;;;;;;;;;;;;;;;22.02;59.59;101451.69;4961235;28;20499;-82
2023/10/22 05:42:43;;;;;;;;;;;;;;;22.00;59.60;101449.00;4953503;28;19922;-84
2023/10/22 05:45:12;;;;;;;;;;;;;;;22.00;59.64;101456.09;4949574;28;19929;-83
2023/10/22 05:47:37;;;;;;;;;;;;;;;22.01;59.62;101461.41;4968671;28;20443;-83
2023/10/22 05:50:04;;;;;;;;;;;;;;;22.02;59.68;101462.34;4954222;28;20020;-85
2023/10/22 05:52:29;;;;;;;;;;;;;;;22.00;59.69;101461.41;4953155;28;19937;-84
2023/10/22 05:54:55;;;;;;;;;;;;;;;21.98;59.73;101450.72;4955824;28;20462;-86
2023/10/22 05:57:22;;;;;;;;;;;;;;;21.98;59.84;101457.81;4950725;28;19956;-83
2023/10/22 05:59:48;;;;;;;;;;;;;;;22.00;59.65;101456.09;4952842;28;19925;-83
2023/10/22 06:02:14;;;;;;;;;;;;;;;21.81;59.56;101425.59;4961606;28;20013;-82
2023/10/22 06:04:39;;;;;;;;;;;;;;;22.02;59.62;101454.34;4948915;28;19929;-82
2023/10/22 06:07:07;;;;;;;;;;;;;;;21.99;59.75;101459.59;4953328;28;19922;-82
2023/10/22 06:09:34;;;;;;;;;;;;;;;22.01;59.74;101460.53;4971238;28;20815;-84
2023/10/22 06:12:00;;;;;;;;;;;;;;;22.00;59.71;101459.63;4950235;28;19918;-82
2023/10/22 06:14:25;;;;;;;;;;;;;;;21.99;59.83;101465.81;4972148;28;20396;-83
2023/10/22 06:16:50;;;;;;;;;;;;;;;21.99;59.81;101472.91;4954995;28;19914;-83
2023/10/22 06:19:17;;;;;;;;;;;;;;;21.98;59.79;101468.47;4971806;28;19921;-83
2023/10/22 06:21:42;;;;;;;;;;;;;;;22.00;59.79;101467.63;4939411;28;19961;-83
2023/10/22 06:24:08;;;;;;;;;;;;;;;21.98;59.87;101471.13;4970891;28;19968;-82
2023/10/22 06:26:34;;;;;;;;;;;;;;;21.94;60.02;101470.16;4972786;28;19918;-81
2023/10/22 06:28:59;;;;;;;;;;;;;;;21.98;60.48;101472.00;4936676;28;20038;-88
2023/10/22 06:31:25;;;;;;;;;;;;;;;21.89;60.84;101471.84;4967248;28;19921;-85
2023/10/22 06:33:50;;;;;;;;;;;;;;;21.89;61.19;101472.75;4960302;28;19948;-84
2023/10/22 06:36:22;;;;;;;;;;;;;;;21.84;61.05;101469.06;4960907;28;20398;-85
2023/10/22 06:38:48;;;;;;;;;;;;;;;21.89;60.83;101478.06;4942862;28;19929;-86
2023/10/22 06:41:14;;;;;;;;;;;;;;;21.88;60.66;101481.56;4938938;28;19922;-86
2023/10/22 06:43:39;;;;;;;;;;;;;;;21.90;60.03;101474.50;4965761;28;19918;-84
2023/10/22 06:46:05;;;;;;;;;;;;;;;21.93;59.01;101479.91;4958693;28;19942;-84
2023/10/22 06:48:30;;;;;;;;;;;;;;;22.02;58.04;101481.84;4974964;28;19938;-84
2023/10/22 06:50:55;;;;;;;;;;;;;;;22.09;57.56;101482.84;4970248;28;19918;-84
2023/10/22 06:53:21;;;;;;;;;;;;;;;22.07;56.84;101484.56;4966349;28;19925;-85
2023/10/22 06:55:47;;;;;;;;;;;;;;;22.14;56.27;101484.72;4959554;28;19922;-86
2023/10/22 06:58:12;;;;;;;;;;;;;;;22.22;55.90;101492.81;4935413;28;19922;-85
2023/10/22 07:00:41;;;;;;;;;;;;;;;22.16;55.83;101488.31;4949015;28;19922;-85
2023/10/22 07:03:06;;;;;;;;;;;;;;;22.24;55.53;101482.25;4951335;28;19918;-84
2023/10/22 07:05:32;;;;;;;;;;;;;;;22.29;54.98;101460.19;4967244;28;20005;-87
2023/10/22 07:07:58;;;;;;;;;;;;;;;22.29;55.09;101473.50;4960485;28;19923;-83
2023/10/22 07:10:23;;;;;;;;;;;;;;;22.31;54.82;101471.75;4949358;28;19988;-86
2023/10/22 07:12:50;;;;;;;;;;;;;;;22.39;54.61;101476.28;4964973;28;19918;-84
2023/10/22 07:15:15;;;;;;;;;;;;;;;22.39;54.28;101474.53;4966934;28;19941;-84
2023/10/22 07:17:44;;;;;;;;;;;;;;;22.41;54.21;101478.09;4947672;28;20392;-86
2023/10/22 07:20:12;;;;;;;;;;;;;;;22.48;53.89;101474.69;4966617;28;19926;-85
2023/10/22 07:22:37;;;;;;;;;;;;;;;22.39;54.02;101476.28;4949984;28;19965;-85
2023/10/22 07:25:04;;;;;;;;;;;;;;;22.41;53.98;101472.78;4952485;29;20422;-86
2023/10/22 07:27:29;;;;;;;;;;;;;;;22.37;53.92;101470.94;4953087;29;20448;-85
2023/10/22 07:29:55;;;;;;;;;;;;;;;22.38;53.78;101464.75;4936851;29;20061;-85
2023/10/22 07:32:20;;;;;;;;;;;;;;;22.38;53.77;101466.53;4947293;28;19978;-84
2023/10/22 07:34:45;;;;;;;;;;;;;;;;;;4950327;29;19937;-84
2023/10/22 07:37:11;;;;;;;;;;;;;;;22.49;53.43;101460.50;4950525;29;19919;-84
2023/10/22 07:39:37;;;;;;;;;;;;;;;22.51;53.22;101461.41;4957650;28;19929;-84
2023/10/22 07:42:02;;;;;;;;;;;;;;;22.47;53.30;101470.22;4947190;28;19919;-85
2023/10/22 07:44:28;;;;;;;;;;;;;;;22.49;53.15;101459.63;4952666;29;20404;-86
2023/10/22 07:46:53;;;;;;;;;;;;;;;22.48;53.11;101456.06;4950264;28;19985;-83
2023/10/22 07:49:20;;;;;;;;;;;;;;;22.54;52.97;101457.91;4952128;29;19915;-86
2023/10/22 07:51:45;;;;;;;;;;;;;;;22.61;52.66;101451.81;4954851;28;19977;-84
2023/10/22 07:54:12;;;;;;;;;;;;;;;22.55;52.61;101441.97;4951069;29;19969;-85
2023/10/22 07:56:37;;;;;;;;;;;;;;;22.51;52.75;101448.13;4939154;29;19938;-85
2023/10/22 07:59:03;;;;;;;;;;;;;;;22.56;52.76;101441.13;4954862;28;20396;-85
2023/10/22 08:01:28;;;;;;;;;;;;;;;22.55;52.61;101447.28;4951263;29;19914;-85
2023/10/22 08:03:54;;;;;;;;;;;;;;;22.59;52.41;101444.69;4953149;28;20360;-86
2023/10/22 08:06:19;;;;;;;;;;;;;;;22.64;52.29;101445.66;4951572;29;19922;-85
2023/10/22 08:08:45;;;;;;;;;;;;;;;22.68;52.15;101445.72;4950631;28;19919;-86
2023/10/22 08:11:10;;;;;;;;;;;;;;;22.61;52.27;101441.19;4955279;28;19950;-86
2023/10/22 08:13:36;;;;;;;;;;;;;;;22.63;52.24;101439.44;4941818;28;19925;-87
2023/10/22 08:16:02;;;;;;;;;;;;;;;22.45;52.12;101405.44;4954334;28;19914;-85
2023/10/22 08:18:27;;;;;;;;;;;;;;;22.64;52.13;101442.97;4948818;29;19923;-86
2023/10/22 08:20:52;;;;;;;;;;;;;;;22.65;52.03;101440.34;4947635;28;20412;-86
2023/10/22 08:23:18;;;;;;;;;;;;;;;22.68;51.90;101432.41;4974727;28;20005;-86
2023/10/22 08:25:51;;;;;;;;;;;;;;;22.71;51.76;101434.19;4957490;28;19918;-85
2023/10/22 08:28:16;;;;;;;;;;;;;;;22.71;51.76;101426.22;4957750;28;19922;-86
2023/10/22 08:30:48;;;;;;;;;;;;;;;22.71;51.83;101424.47;4953822;28;19922;-87
2023/10/22 08:33:14;;;;;;;;;;;;;;;22.79;51.56;101423.69;4960813;28;19918;-86
2023/10/22 08:35:40;;;;;;;;;;;;;;;22.76;51.44;101424.53;4957748;28;19973;-86
2023/10/22 08:38:06;;;;;;;;;;;;;;;22.74;51.63;101424.50;4957070;28;19921;-85
2023/10/22 08:40:34;;;;;;;;;;;;;;;22.71;51.46;101419.16;4952793;28;20308;-84
2023/10/22 08:43:02;;;;;;;;;;;;;;;22.76;51.53;101422.75;4946081;28;19914;-85
2023/10/22 08:45:27;;;;;;;;;;;;;;;22.70;51.54;101422.66;4943505;28;19925;-84
2023/10/22 08:47:53;;;;;;;;;;;;;;;22.83;51.21;101417.53;4945429;28;19941;-84
2023/10/22 08:50:18;;;;;;;;;;;;;;;22.70;51.45;101425.31;4966967;28;19919;-85
2023/10/22 08:52:44;;;;;;;;;;;;;;;22.78;51.38;101414.81;4939048;28;19918;-83
2023/10/22 08:55:09;;;;;;;;;;;;;;;22.82;51.15;101413.06;4957530;28;19914;-83
2023/10/22 08:57:34;;;;;;;;;;;;;;;22.77;51.47;101411.25;4951810;28;20004;-84
2023/10/22 09:00:00;;;;;;;;;;;;;;;22.74;51.29;101410.31;4969472;28;19926;-84
2023/10/22 09:02:28;;;;;;;;;;;;;;;22.64;51.69;101411.03;4950389;29;19919;-85
2023/10/22 09:04:55;;;;;;;;;;;;;;;22.72;51.30;101415.59;4974721;28;19920;-86
2023/10/22 09:07:40;;;;;;;;;;;;;;;22.79;51.13;101400.59;4972587;28;19918;-85
2023/10/22 09:10:07;;;;;;;;;;;;;;;22.84;51.06;101400.66;4970917;28;19946;-85
2023/10/22 09:12:33;;;;;;;;;;;;;;;22.83;51.01;101397.09;4947995;28;19914;-84
2023/10/22 09:14:59;;;;;;;;;;;;;;;22.83;51.11;101396.22;4973837;28;19915;-85
2023/10/22 09:17:25;;;;;;;;;;;;;;;22.96;50.75;101390.16;4964205;28;20356;-85
2023/10/22 09:19:52;;;;;;;;;;;;;;;22.87;50.87;101390.06;4970781;28;19929;-85
2023/10/22 09:22:22;;;;;;;;;;;;;;;22.84;51.08;101390.91;4956455;28;19930;-84
2023/10/22 09:24:49;;;;;;;;;;;;;;;22.85;50.91;101398.03;4969140;28;19942;-85
2023/10/22 09:27:25;;;;;;;;;;;;;;;22.92;50.58;101381.28;4965674;28;20343;-85
2023/10/22 09:29:51;;;;;;;;;;;;;;;22.87;50.65;101380.28;4968165;28;20316;-87
2023/10/22 09:32:19;;;;;;;;;;;;;;;22.89;50.82;101380.31;4940490;29;19922;-86
2023/10/22 09:34:44;;;;;;;;;;;;;;;22.89;50.70;101381.22;4952282;29;20009;-85
2023/10/22 09:37:11;;;;;;;;;;;;;;;22.89;50.73;101373.22;4955799;28;20017;-84
2023/10/22 09:39:44;;;;;;;;;;;;;;;22.87;50.67;101382.97;4937032;28;20005;-86
2023/10/22 09:42:11;;;;;;;;;;;;;;;23.04;50.28;101369.00;4948965;28;19949;-84
2023/10/22 09:44:52;;;;;;;;;;;;;;;23.01;50.35;101364.53;4954389;28;19914;-83
2023/10/22 09:47:23;;;;;;;;;;;;;;;23.01;50.38;101363.63;4953639;29;19914;-84
2023/10/22 09:49:59;;;;;;;;;;;;;;;22.82;50.76;101358.03;4954632;28;19918;-86
2023/10/22 09:52:31;;;;;;;;;;;;;;;22.83;50.76;101349.16;4955045;28;19918;-86
2023/10/22 09:54:58;;;;;;;;;;;;;;;22.95;50.44;101354.66;4969767;28;19926;-85
2023/10/22 09:57:31;;;;;;;;;;;;;;;22.93;50.41;101351.06;4946700;28;20468;-86
2023/10/22 10:00:15;;;;;;;;;;;;;;;23.01;50.37;101352.97;4944039;28;19941;-85
2023/10/22 10:02:40;;;;;;;;;;;;;;;22.95;50.42;101351.09;4948580;28;19953;-84
2023/10/22 10:05:12;;;;;;;;;;;;;;;22.88;50.52;101349.22;4954048;28;19949;-84
2023/10/22 10:07:40;;;;;;;;;;;;;;;22.93;50.36;101343.09;4954231;28;20391;-84
2023/10/22 10:10:06;;;;;;;;;;;;;;;22.90;50.50;101344.81;4953940;28;20387;-85
2023/10/22 10:12:32;;;;;;;;;;;;;;;22.90;50.34;101342.16;4953851;28;19921;-84
2023/10/22 10:14:57;;;;;;;;;;;;;;;22.95;50.39;101341.34;4971116;28;19914;-84
2023/10/22 10:17:23;;;;;;;;;;;;;;;23.03;50.06;101340.56;4968635;28;19923;-85
2023/10/22 10:19:48;;;;;;;;;;;;;;;23.10;49.86;101334.44;4969869;28;19919;-87
2023/10/22 10:22:46;;;;;;;;;;;;;;;23.07;49.87;101331.72;4968871;28;19926;-83
2023/10/22 10:25:42;;;;;;;;;;;;;;;23.13;49.62;101332.69;4917431;28;19921;-84
2023/10/22 10:28:10;;;;;;;;;;;;;;;23.08;49.75;101333.53;4950458;28;19921;-85
2023/10/22 10:30:36;;;;;;;;;;;;;;;23.13;49.81;101319.38;4950862;28;19918;-86
2023/10/22 10:33:02;;;;;;;;;;;;;;;23.05;49.80;101320.16;4942091;28;19918;-85
2023/10/22 10:35:28;;;;;;;;;;;;;;;23.06;49.70;101325.50;4955058;28;19977;-86
2023/10/22 10:38:12;;;;;;;;;;;;;;;23.07;49.79;101326.41;4941186;28;19918;-85
2023/10/22 10:40:41;;;;;;;;;;;;;;;22.96;50.11;101318.25;4964446;28;19950;-85
2023/10/22 10:43:06;;;;;;;;;;;;;;;23.05;49.88;101310.41;4957426;28;20292;-85
2023/10/22 10:45:31;;;;;;;;;;;;;;;23.09;49.83;101306.00;4941256;28;19914;-85
2023/10/22 10:47:57;;;;;;;;;;;;;;;23.12;49.61;101296.28;4954728;28;19915;-85
2023/10/22 10:50:22;;;;;;;;;;;;;;;23.05;49.64;101301.50;4966178;28;20016;-86
2023/10/22 10:52:48;;;;;;;;;;;;;;;23.04;49.81;101300.63;4965468;28;19918;-87
2023/10/22 10:55:19;;;;;;;;;;;;;;;22.96;49.89;101300.53;4954553;28;19921;-86
2023/10/22 10:57:46;;;;;;;;;;;;;;;23.14;49.46;101297.19;4970730;28;19921;-87
2023/10/22 11:00:21;;;;;;;;;;;;;;;23.07;49.44;101295.34;4955107;28;19953;-85
2023/10/22 11:02:47;;;;;;;;;;;;;;;23.14;49.39;101296.31;4952618;28;19918;-85
2023/10/22 11:05:14;;;;;;;;;;;;;;;23.09;49.50;101295.34;4929421;28;19925;-85
2023/10/22 11:07:40;;;;;;;;;;;;;;;23.11;49.50;101293.59;4955278;28;19922;-84
2023/10/22 11:10:16;;;;;;;;;;;;;;;23.12;49.48;101288.28;4974883;28;19968;-84
2023/10/22 11:12:42;;;;;;;;;;;;;;;23.17;49.17;101278.56;4974556;28;19914;-85
2023/10/22 11:15:10;;;;;;;;;;;;;;;23.17;49.16;101281.22;4958151;28;20013;-85
2023/10/22 11:17:38;;;;;;;;;;;;;;;23.20;49.19;101290.13;4954907;28;19997;-84
2023/10/22 11:20:04;;;;;;;;;;;;;;;23.12;49.26;101295.41;4945674;28;19961;-85
2023/10/22 11:22:30;;;;;;;;;;;;;;;23.14;49.20;101289.19;4974591;28;19922;-86
2023/10/22 11:24:56;;;;;;;;;;;;;;;23.15;49.12;101282.97;4958189;28;19914;-85
2023/10/22 11:27:22;;;;;;;;;;;;;;;23.16;49.09;101275.91;4957885;28;19914;-86
2023/10/22 11:29:48;;;;;;;;;;;;;;;23.02;49.46;101281.06;4966043;28;20398;-84
2023/10/22 11:32:14;;;;;;;;;;;;;;;23.16;49.07;101273.25;4953122;28;20307;-87
2023/10/22 11:35:00;;;;;;;;;;;;;;;23.15;49.04;101287.41;4954454;28;19925;-86
2023/10/22 11:37:42;;;;;;;;;;;;;;;23.16;48.95;101286.56;4972584;28;20017;-86
2023/10/22 11:40:26;;;;;;;;;;;;;;;23.08;49.13;101282.91;4945380;28;19925;-85
2023/10/22 11:42:52;;;;;;;;;;;;;;;23.12;49.18;101272.31;4944513;29;19915;-85
2023/10/22 11:45:17;;;;;;;;;;;;;;;23.12;49.04;101269.63;4968996;28;19914;-84
2023/10/22 11:47:43;;;;;;;;;;;;;;;23.22;48.98;101280.38;4953789;28;19922;-84
2023/10/22 11:50:09;;;;;;;;;;;;;;;23.14;48.94;101285.66;4953916;28;19918;-84
2023/10/22 11:52:34;;;;;;;;;;;;;;;23.05;49.29;101273.13;4960882;28;20066;-84
2023/10/22 11:55:07;;;;;;;;;;;;;;;23.18;49.03;101266.16;4970042;28;20396;-83
2023/10/22 11:57:33;;;;;;;;;;;;;;;23.23;48.69;101258.19;4954648;28;20056;-83
2023/10/22 11:59:58;;;;;;;;;;;;;;;23.23;48.78;101250.22;4958555;28;20021;-83
2023/10/22 12:02:24;;;;;;;;;;;;;;;23.28;48.90;101249.38;4954583;28;19929;-84
2023/10/22 12:04:49;;;;;;;;;;;;;;;23.28;48.62;101251.13;4970936;28;19914;-84
2023/10/22 12:07:15;;;;;;;;;;;;;;;23.26;48.80;101252.88;4954571;28;19989;-82
2023/10/22 12:09:41;;;;;;;;;;;;;;;23.23;48.74;101243.09;4957392;28;19922;-85
2023/10/22 12:12:07;;;;;;;;;;;;;;;23.35;48.56;101242.34;4975049;28;19918;-87
2023/10/22 12:14:32;;;;;;;;;;;;;;;23.37;48.36;101233.47;4956751;28;19922;-85
2023/10/22 12:16:58;;;;;;;;;;;;;;;23.17;48.83;101235.03;4956480;28;20016;-84
2023/10/22 12:19:23;;;;;;;;;;;;;;;23.24;48.76;101242.25;4955852;28;19969;-84
2023/10/22 12:21:49;;;;;;;;;;;;;;;23.26;48.83;101240.47;4948481;29;19922;-84
2023/10/22 12:24:14;;;;;;;;;;;;;;;23.38;48.41;101245.00;4952201;28;19918;-85
2023/10/22 12:26:40;;;;;;;;;;;;;;;23.44;48.23;101238.84;4957482;28;19918;-85
2023/10/22 12:29:05;;;;;;;;;;;;;;;23.52;48.12;101234.47;4960418;28;19949;-85
2023/10/22 12:31:31;;;;;;;;;;;;;;;23.38;48.38;101234.34;4941124;29;19973;-85
2023/10/22 12:33:56;;;;;;;;;;;;;;;23.31;48.55;101241.41;4957751;28;19953;-85
2023/10/22 12:36:22;;;;;;;;;;;;;;;23.26;48.68;101239.56;4956425;28;19993;-85
2023/10/22 12:38:47;;;;;;;;;;;;;;;23.35;48.47;101240.56;4966400;28;19919;-85